Time;durP1;ratioP1;P1;durP2;ratioP2;P2;SDS_P1;SDS_P2;PMS_P1;PMS_P2;Temp;Humidity;BMP_temperature;BMP_pressure;BME280_temperature;BME280_humidity;BME280_pressure;Samples;Min_cycle;Max_cycle;Signal;HPM_P1;HPM_P2
2022/12/14 00:01:35;;;;;;;12.90;5.38;;;;;;;-3.58;75.39;98845.56;4741703;30;20188;-81
2022/12/14 00:04:01;;;;;;;11.68;5.50;;;;;;;-3.80;75.25;98794.88;4741821;30;20093;-81
2022/12/14 00:06:29;;;;;;;11.20;5.10;;;;;;;-3.75;75.66;98795.03;4741292;30;20047;-82
2022/12/14 00:08:57;;;;;;;9.38;5.40;;;;;;;-3.59;74.71;98836.22;4772085;30;20044;-81
2022/12/14 00:11:24;;;;;;;11.40;4.90;;;;;;;-3.56;74.70;98826.13;4756212;30;20121;-81
2022/12/14 00:13:59;;;;;;;10.32;5.20;;;;;;;-3.59;75.51;98823.50;4756438;30;20047;-81
2022/12/14 00:16:28;;;;;;;14.85;5.78;;;;;;;-3.51;75.61;98811.88;4760216;30;20066;-80
2022/12/14 00:18:57;;;;;;;15.60;6.20;;;;;;;-3.41;75.17;98805.41;4748609;30;20051;-81
2022/12/14 00:21:24;;;;;;;11.82;5.47;;;;;;;-3.42;75.10;98807.06;4757349;30;20054;-79
2022/12/14 00:23:52;;;;;;;17.42;6.07;;;;;;;-3.42;74.55;98806.22;4727492;30;20044;-82
2022/12/14 00:26:21;;;;;;;11.32;6.63;;;;;;;-3.42;75.42;98786.72;4756696;30;20055;-82
2022/12/14 00:28:48;;;;;;;14.68;6.47;;;;;;;-3.98;74.33;98721.44;4756892;30;20051;-80
2022/12/14 00:31:15;;;;;;;16.08;7.32;;;;;;;-3.35;76.05;98792.88;4757706;30;20044;-81
2022/12/14 00:33:41;;;;;;;12.43;6.30;;;;;;;-3.36;75.30;98784.38;4743959;30;20043;-80
2022/12/14 00:36:11;;;;;;;15.88;6.30;;;;;;;-3.91;74.81;98727.56;4759115;30;20422;-81
2022/12/14 00:38:38;;;;;;;12.13;5.70;;;;;;;-3.71;74.36;98766.34;4773451;30;20082;-81
2022/12/14 00:41:05;;;;;;;13.82;6.43;;;;;;;-4.03;74.16;98719.56;4737126;30;20024;-81
2022/12/14 00:43:31;;;;;;;12.15;5.93;;;;;;;-3.57;75.26;98791.34;4747871;30;20132;-82
2022/12/14 00:45:57;;;;;;;11.80;5.78;;;;;;;-3.56;74.48;98767.63;4727543;30;20040;-81
2022/12/14 00:48:24;;;;;;;11.40;5.22;;;;;;;-3.26;75.60;98777.88;4756007;30;20044;-80
2022/12/14 00:50:52;;;;;;;10.88;5.07;;;;;;;-3.38;74.35;98765.66;4756807;30;20044;-79
2022/12/14 00:53:18;;;;;;;9.85;4.97;;;;;;;-3.60;74.44;98751.44;4773069;30;20103;-82
2022/12/14 00:55:46;;;;;;;15.77;4.95;;;;;;;-3.47;75.07;98770.47;4787681;29;20138;-81
2022/12/14 00:58:15;;;;;;;11.18;5.45;;;;;;;-3.39;74.90;98760.53;4772651;30;20047;-79
2022/12/14 01:00:45;;;;;;;9.10;4.90;;;;;;;-3.47;74.55;98757.75;4789069;29;20108;-80
2022/12/14 01:03:11;;;;;;;10.70;5.05;;;;;;;-3.98;74.13;98668.03;4771105;30;20046;-83
2022/12/14 01:05:38;;;;;;;12.85;6.28;;;;;;;-3.57;74.62;98743.00;4771845;29;20058;-79
2022/12/14 01:08:05;;;;;;;11.52;5.50;;;;;;;-3.61;74.18;98739.53;4756784;30;20043;-80
2022/12/14 01:10:32;;;;;;;11.95;5.57;;;;;;;-3.91;74.53;98689.44;4771859;29;20124;-83
2022/12/14 01:12:58;;;;;;;11.43;5.80;;;;;;;-3.86;74.46;98708.25;4787939;30;20051;-82
2022/12/14 01:15:24;;;;;;;10.82;5.47;;;;;;;-3.77;74.52;98707.66;4788695;29;20047;-82
2022/12/14 01:17:51;;;;;;;12.02;5.80;;;;;;;-3.63;74.49;98711.47;4757281;30;20069;-81
2022/12/14 01:20:18;;;;;;;14.43;6.25;;;;;;;-3.34;75.44;98721.69;4757065;30;20043;-81
2022/12/14 01:22:44;;;;;;;10.05;4.80;;;;;;;-3.43;73.39;98712.91;4758321;29;20058;-82
2022/12/14 01:25:10;;;;;;;10.02;5.38;;;;;;;-3.43;74.45;98723.97;4773237;30;20065;-81
2022/12/14 01:27:36;;;;;;;9.20;4.22;;;;;;;-3.46;74.56;98700.97;4772703;30;20046;-79
2022/12/14 01:30:03;;;;;;;9.40;4.45;;;;;;;-3.51;73.86;98720.31;4779143;30;20076;-78
2022/12/14 01:32:33;;;;;;;10.30;4.60;;;;;;;-3.55;74.55;98723.56;4776155;29;20134;-83
2022/12/14 01:34:59;;;;;;;10.23;4.82;;;;;;;-3.73;74.00;98693.34;4771852;29;20043;-80
2022/12/14 01:37:26;;;;;;;12.27;5.30;;;;;;;-3.47;75.10;98709.44;4772062;30;20046;-82
2022/12/14 01:39:52;;;;;;;10.00;4.75;;;;;;;-3.75;73.34;98685.69;4789482;29;20138;-79
2022/12/14 01:42:19;;;;;;;9.05;4.70;;;;;;;-3.50;74.17;98724.59;4759410;29;20039;-79
2022/12/14 01:44:54;;;;;;;9.38;4.90;;;;;;;-3.78;74.52;98667.78;4774064;30;20476;-83
2022/12/14 01:47:25;;;;;;;18.80;5.35;;;;;;;-3.65;73.69;98707.19;4790603;29;20073;-81
2022/12/14 01:49:58;;;;;;;9.60;4.88;;;;;;;-4.09;73.85;98626.19;4787550;29;20572;-81
2022/12/14 01:52:37;;;;;;;11.40;4.72;;;;;;;-3.64;74.06;98702.13;4774873;29;20050;-82
2022/12/14 01:55:06;;;;;;;14.52;6.18;;;;;;;-3.67;74.28;98699.50;4765433;30;20058;-80
2022/12/14 01:57:53;;;;;;;12.23;5.72;;;;;;;-4.85;73.40;98514.59;4739124;30;20200;-80
2022/12/14 02:00:22;;;;;;;9.18;5.07;;;;;;;-4.56;74.22;98560.38;4723971;30;20104;-82
2022/12/14 02:02:55;;;;;;;14.00;5.68;;;;;;;-5.16;74.51;98471.34;4739021;30;20043;-79
2022/12/14 02:05:24;;;;;;;10.60;5.47;;;;;;;-4.13;73.96;98637.09;4739103;30;20064;-80
2022/12/14 02:07:53;;;;;;;11.65;5.18;;;;;;;-4.43;73.99;98569.25;4723954;30;20518;-79
2022/12/14 02:10:23;;;;;;;9.75;5.28;;;;;;;-4.56;74.16;98523.16;4753425;30;20039;-79
2022/12/14 02:13:16;;;;;;;8.00;4.45;;;;;;;-3.55;74.57;98670.16;4752886;30;20044;-78
2022/12/14 02:15:56;;;;;;;9.95;4.68;;;;;;;-4.82;73.97;98483.41;4757495;30;20564;-80
2022/12/14 02:18:48;;;;;;;10.90;5.10;;;;;;;-5.19;74.22;98415.47;4746906;30;20048;-81
2022/12/14 02:21:27;;;;;;;12.40;5.28;;;;;;;-3.36;74.22;98676.66;4772529;30;20058;-80
2022/12/14 02:24:25;;;;;;;9.95;4.93;;;;;;;-4.13;73.68;98573.56;4742452;30;20074;-81
2022/12/14 02:27:04;;;;;;;9.60;4.78;;;;;;;-3.51;73.71;98679.63;4741421;30;20154;-80
2022/12/14 02:29:40;;;;;;;10.35;4.80;;;;;;;-5.19;73.75;98420.53;4741319;30;20048;-80
2022/12/14 02:32:36;;;;;;;9.57;4.85;;;;;;;-3.68;73.35;98672.34;4756649;30;20066;-82
2022/12/14 02:35:33;;;;;;;9.50;4.72;;;;;;;-3.77;73.90;98674.59;4756685;30;20434;-82
2022/12/14 02:38:17;;;;;;;13.50;5.10;;;;;;;-3.79;74.37;98678.78;4740920;30;20415;-81
2022/12/14 02:41:18;;;;;;;8.57;4.35;;;;;;;-3.82;73.95;98671.06;4741752;30;20055;-81
2022/12/14 02:43:59;;;;;;;9.45;4.65;;;;;;;-3.89;73.80;98674.25;4727016;30;20051;-82
2022/12/14 02:46:45;;;;;;;10.52;5.00;;;;;;;-4.19;72.98;98636.88;4741771;30;20470;-80
2022/12/14 02:49:30;;;;;;;8.93;4.47;;;;;;;-4.06;73.61;98664.38;4756068;30;20036;-81
2022/12/14 02:52:05;;;;;;;10.68;5.38;;;;;;;-3.96;73.33;98661.34;4765845;30;20051;-82
2022/12/14 02:54:41;;;;;;;10.77;4.60;;;;;;;-4.03;73.81;98625.53;4790096;29;20043;-82
2022/12/14 02:57:17;;;;;;;10.73;5.30;;;;;;;-3.96;73.50;98645.19;4790140;29;20071;-81
2022/12/14 02:59:48;;;;;;;9.98;5.03;;;;;;;-4.06;73.46;98641.53;4758739;29;20051;-84
2022/12/14 03:02:14;;;;;;;14.77;5.75;;;;;;;-4.13;73.71;98627.75;4759315;30;20062;-82
2022/12/14 03:04:46;;;;;;;12.82;5.97;;;;;;;-4.12;73.63;98648.97;4774016;29;20043;-84
2022/12/14 03:07:28;;;;;;;9.35;5.05;;;;;;;-4.13;74.42;98615.06;4768167;29;20036;-81
2022/12/14 03:09:55;;;;;;;;;;;;;;;-4.10;73.94;98624.47;4779457;30;20039;-82
2022/12/14 03:12:21;;;;;;;11.98;4.97;;;;;;;-4.36;74.05;98573.72;4790334;29;19928;-82
2022/12/14 03:14:52;;;;;;;11.40;5.43;;;;;;;-4.02;75.38;98595.06;4759105;29;20043;-81
2022/12/14 03:17:22;;;;;;;12.73;5.55;;;;;;;-3.85;74.46;98613.38;4789530;29;20043;-83
2022/12/14 03:19:55;;;;;;;12.20;5.80;;;;;;;-3.97;73.66;98601.16;4760201;30;20039;-81
2022/12/14 03:22:41;;;;;;;10.45;5.28;;;;;;;-4.33;73.70;98540.78;4801401;29;20053;-80
2022/12/14 03:25:29;;;;;;;11.88;5.45;;;;;;;-4.16;72.86;98593.78;4801028;29;20050;-82
2022/12/14 03:28:06;;;;;;;12.40;5.90;;;;;;;-4.44;73.96;98552.28;4799922;29;20043;-82
2022/12/14 03:30:42;;;;;;;13.25;5.85;;;;;;;-4.67;74.23;98481.31;4774591;30;20039;-83
2022/12/14 03:33:21;;;;;;;8.80;5.20;;;;;;;-4.74;73.62;98484.47;4791716;29;20057;-82
2022/12/14 03:36:06;;;;;;;11.93;5.57;;;;;;;-4.26;74.58;98531.66;4764565;29;20533;-80
2022/12/14 03:38:41;;;;;;;12.20;5.82;;;;;;;-4.40;73.83;98499.06;4774356;29;20127;-81
2022/12/14 03:41:49;;;;;;;11.02;5.50;;;;;;;-4.01;72.58;98611.19;4780999;30;20039;-82
2022/12/14 03:44:36;;;;;;;13.48;6.03;;;;;;;-4.13;73.04;98630.31;4779878;30;20073;-81
2022/12/14 03:47:14;;;;;;;12.55;5.78;;;;;;;-3.98;74.72;98617.22;4790259;29;20126;-80
2022/12/14 03:50:02;;;;;;;13.77;5.82;;;;;;;-4.09;73.70;98581.31;4773373;30;20130;-80
2022/12/14 03:52:47;;;;;;;12.73;6.22;;;;;;;-3.84;73.74;98617.63;4760232;30;20220;-81
2022/12/14 03:55:55;;;;;;;14.93;6.50;;;;;;;-3.96;72.71;98615.59;4740762;30;20096;-80
2022/12/14 03:58:21;;;;;;;13.73;6.28;;;;;;;-3.79;74.33;98610.13;4766337;30;20081;-80
2022/12/14 04:01:10;;;;;;;13.63;6.65;;;;;;;-3.85;73.57;98602.31;4771362;30;20043;-81
2022/12/14 04:04:01;;;;;;;15.27;6.40;;;;;;;-3.71;74.46;98595.97;4726389;30;20082;-81
2022/12/14 04:06:37;;;;;;;12.30;6.40;;;;;;;-3.51;73.78;98601.59;4771323;30;20063;-79
2022/12/14 04:09:23;;;;;;;12.75;6.00;;;;;;;-3.64;73.36;98581.75;4740348;30;20063;-79
2022/12/14 04:20:55;;;;;;;11.48;5.88;;;;;;;-3.87;73.83;98548.91;4772109;30;20059;-81
2022/12/14 04:26:22;;;;;;;14.98;6.75;;;;;;;-4.24;73.23;98472.44;4740466;30;20514;-82
2022/12/14 04:32:14;;;;;;;12.05;6.60;;;;;;;-5.09;73.08;98325.28;4755062;30;20051;-81
2022/12/14 04:34:44;;;;;;;13.90;6.20;;;;;;;-4.40;72.28;98476.22;4755262;30;20516;-82
2022/12/14 04:37:16;;;;;;;12.10;6.20;;;;;;;-5.14;72.19;98358.09;4756976;30;20062;-82
2022/12/14 04:39:53;;;;;;;11.35;5.95;;;;;;;-5.30;73.15;98328.88;4770906;30;20095;-81
2022/12/14 04:42:25;;;;;;;12.88;6.50;;;;;;;-4.48;73.61;98464.97;4741049;30;20052;-82
2022/12/14 04:45:06;;;;;;;;;;;;;;;-3.58;72.44;98601.41;4741128;30;20047;-80
2022/12/14 04:47:41;;;;;;;15.23;6.97;;;;;;;-4.86;73.85;98383.47;4755190;30;19932;-81
2022/12/14 04:50:27;;;;;;;17.17;7.40;;;;;;;-3.94;74.42;98491.06;4739812;30;20043;-80
2022/12/14 04:53:06;;;;;;;16.52;7.30;;;;;;;-4.03;71.99;98493.38;4755905;29;20051;-82
2022/12/14 04:55:41;;;;;;;11.20;5.90;;;;;;;-4.55;73.28;98395.38;4742084;29;20123;-80
2022/12/14 04:58:17;;;;;;;16.33;6.78;;;;;;;-4.02;72.05;98507.78;4772110;29;20051;-80
2022/12/14 05:00:52;;;;;;;14.32;6.90;;;;;;;-3.63;73.06;98588.56;4757180;29;20051;-81
2022/12/14 05:03:33;;;;;;;15.27;7.05;;;;;;;-3.93;72.03;98551.25;4788644;29;20062;-82
2022/12/14 05:06:57;;;;;;;13.25;7.07;;;;;;;-3.49;72.97;98591.50;4787558;29;20130;-83
2022/12/14 05:10:01;;;;;;;18.50;7.47;;;;;;;-3.42;71.85;98592.53;4686473;30;20052;-84
2022/12/14 05:13:15;;;;;;;15.38;7.30;;;;;;;-3.70;72.15;98582.44;4716387;30;20512;-81
2022/12/14 05:16:40;;;;;;;;;;;;;;;;;;;;;
2022/12/14 05:29:16;;;;;;;16.52;7.78;;;;;;;-4.03;71.95;98561.97;4602858;31;20106;-82
2022/12/14 05:36:10;;;;;;;16.92;7.85;;;;;;;-4.86;72.86;98368.22;4685261;30;20064;-82
2022/12/14 05:44:09;;;;;;;14.73;7.55;;;;;;;-5.42;72.44;98323.41;4650847;30;20059;-82
2022/12/14 05:46:42;;;;;;;15.70;7.45;;;;;;;-3.60;73.79;98559.78;4642811;30;20062;-83
2022/12/14 05:49:46;;;;;;;23.02;9.40;;;;;;;-5.01;73.12;98282.34;4634994;31;20454;-83
2022/12/14 05:52:50;;;;;;;21.20;8.90;;;;;;;-3.15;73.14;98569.50;4648189;30;20151;-82
2022/12/14 05:55:37;;;;;;;20.27;8.93;;;;;;;-2.93;73.81;98560.75;4675072;30;20054;-82
2022/12/14 05:58:07;;;;;;;18.67;8.05;;;;;;;-4.55;71.38;98329.34;4693996;30;20101;-81
2022/12/14 06:00:39;;;;;;;18.88;8.57;;;;;;;-3.44;73.13;98485.66;4682712;30;20049;-79
2022/12/14 06:03:08;;;;;;;21.42;10.13;;;;;;;-3.80;72.23;98403.34;4697402;30;20064;-80
2022/12/14 06:05:35;;;;;;;18.23;8.43;;;;;;;-3.34;72.96;98463.84;4710218;30;20117;-83
2022/12/14 06:08:07;;;;;;;19.02;8.95;;;;;;;-4.00;72.81;98357.06;4708274;30;20053;-83
2022/12/14 06:10:39;;;;;;;19.33;9.30;;;;;;;-4.51;72.74;98304.03;4725169;30;20056;-81
2022/12/14 06:13:45;;;;;;;21.25;9.13;;;;;;;-2.82;72.80;98578.84;4728258;30;20049;-81
2022/12/14 06:16:23;;;;;;;18.92;9.27;;;;;;;-3.36;72.53;98498.56;4722060;30;20104;-82
2022/12/14 06:19:08;;;;;;;21.15;9.13;;;;;;;-3.69;72.20;98446.84;4729153;30;20112;-82
2022/12/14 06:21:36;;;;;;;22.38;8.55;;;;;;;-3.90;71.45;98438.66;4765211;30;20518;-81
2022/12/14 06:24:24;;;;;;;18.50;8.95;;;;;;;-4.60;72.23;98335.97;4795887;30;20111;-84
2022/12/14 06:26:55;;;;;;;20.33;9.40;;;;;;;-4.39;73.22;98343.31;4760819;30;20047;-80
2022/12/14 06:29:38;;;;;;;18.20;8.77;;;;;;;-2.52;72.63;98610.97;4751920;30;20138;-79
2022/12/14 06:32:13;;;;;;;17.23;8.80;;;;;;;-3.62;71.37;98435.16;4778609;30;20067;-81
2022/12/14 06:35:09;;;;;;;15.50;8.48;;;;;;;-3.00;71.69;98584.31;4765297;30;20157;-83
2022/12/14 06:37:50;;;;;;;15.93;8.65;;;;;;;-3.39;72.79;98473.88;4774338;30;20060;-81
2022/12/14 06:40:16;;;;;;;14.25;7.38;;;;;;;-3.54;71.58;98430.25;4770580;30;20055;-81
2022/12/14 06:42:43;;;;;;;18.95;9.13;;;;;;;-2.48;72.80;98578.81;4740577;30;20474;-83
2022/12/14 06:45:12;;;;;;;15.63;8.00;;;;;;;-3.18;71.98;98462.53;4766361;30;20062;-82
2022/12/14 06:50:52;;;;;;;15.98;7.57;;;;;;;-4.66;70.95;98334.94;4773717;29;20083;-81
2022/12/14 06:53:24;;;;;;;18.45;8.73;;;;;;;-3.40;72.51;98525.59;4772436;29;20043;-82
2022/12/14 06:55:50;;;;;;;17.17;8.40;;;;;;;-3.61;72.38;98469.06;4750547;30;20394;-84
2022/12/14 06:58:17;;;;;;;17.05;8.77;;;;;;;-2.46;72.04;98613.69;4739684;30;20461;-80
2022/12/14 07:01:04;;;;;;;16.58;9.25;;;;;;;-3.83;72.51;98387.13;4758450;29;20983;-81
2022/12/14 07:03:39;;;;;;;15.77;8.60;;;;;;;-2.85;71.96;98548.19;4743441;30;20363;-81
2022/12/14 07:06:09;;;;;;;22.17;9.95;;;;;;;-4.04;72.82;98324.75;4773896;30;20058;-82
2022/12/14 07:08:39;;;;;;;17.98;8.90;;;;;;;-3.69;71.41;98370.56;4742985;30;20040;-82
2022/12/14 07:11:32;;;;;;;19.48;9.27;;;;;;;-3.15;71.92;98465.16;4743450;30;20122;-82
2022/12/14 07:14:17;;;;;;;14.93;8.23;;;;;;;-3.23;70.29;98474.28;4758500;30;20139;-81
2022/12/14 07:16:44;;;;;;;20.80;9.35;;;;;;;-3.21;70.06;98546.47;4754773;30;20039;-81
2022/12/14 07:19:46;;;;;;;21.73;10.52;;;;;;;-3.92;71.75;98405.53;4792112;29;20055;-81
2022/12/14 07:22:16;;;;;;;19.80;10.13;;;;;;;-3.69;72.06;98439.22;4766617;30;20047;-81
2022/12/14 07:24:45;;;;;;;21.63;10.30;;;;;;;-2.73;72.72;98534.91;4791466;30;20070;-82
2022/12/14 07:27:46;;;;;;;18.15;10.10;;;;;;;-2.77;71.55;98528.91;4775627;30;20046;-79
2022/12/14 07:30:13;;;;;;;18.27;9.50;;;;;;;-1.90;72.24;98630.28;4733546;30;20490;-82
2022/12/14 07:32:39;;;;;;;18.40;9.60;;;;;;;-2.41;72.84;98522.06;4771640;30;20051;-82
2022/12/14 07:35:06;;;;;;;20.25;9.35;;;;;;;-2.12;72.49;98552.44;4759019;30;20039;-80
2022/12/14 07:37:38;;;;;;;19.42;8.77;;;;;;;-1.73;72.65;98591.53;4761771;29;20043;-81
2022/12/14 07:40:04;;;;;;;;;;;;;;;-1.28;72.21;98644.34;4757808;30;20059;-82
2022/12/14 07:42:31;;;;;;;20.05;10.10;;;;;;;-1.55;71.69;98593.59;4774410;30;19922;-80
2022/12/14 07:45:00;;;;;;;17.48;10.15;;;;;;;-1.27;71.64;98625.63;4765241;30;20474;-81
2022/12/14 07:48:18;;;;;;;;;;;;;;;;;;;;;
2022/12/14 07:50:47;;;;;;;18.95;10.55;;;;;;;-1.78;71.46;98529.34;4758553;30;20644;-84
2022/12/14 07:53:14;;;;;;;18.65;9.57;;;;;;;-2.06;70.93;98485.41;4739777;30;20486;-82
2022/12/14 07:55:41;;;;;;;21.42;9.80;;;;;;;-1.18;71.08;98626.63;4738753;30;20067;-84
2022/12/14 07:58:07;;;;;;;21.00;10.70;;;;;;;-1.71;71.11;98552.44;4742832;30;20040;-83
2022/12/14 08:00:33;;;;;;;20.08;10.05;;;;;;;-1.44;71.70;98568.28;4765961;30;20052;-83
2022/12/14 08:03:00;;;;;;;18.73;9.13;;;;;;;-0.86;70.93;98646.81;4773522;30;20043;-82
2022/12/14 08:05:47;;;;;;;20.95;10.20;;;;;;;-0.78;70.79;98646.13;4757421;30;20399;-82
2022/12/14 08:08:15;;;;;;;17.48;8.68;;;;;;;-1.07;71.34;98579.19;4775196;30;20047;-83
2022/12/14 08:10:41;;;;;;;16.75;8.98;;;;;;;-1.33;70.87;98550.63;4771768;30;20053;-83
2022/12/14 08:13:09;;;;;;;17.60;9.13;;;;;;;-0.77;71.15;98662.31;4756501;30;20583;-82
2022/12/14 08:15:38;;;;;;;16.50;8.77;;;;;;;-1.40;70.57;98547.97;4772082;30;20075;-82
2022/12/14 08:21:46;;;;;;;13.02;7.40;;;;;;;-0.54;70.33;98692.53;4734476;30;20076;-82
2022/12/14 08:24:13;;;;;;;16.50;8.13;;;;;;;-1.60;70.05;98528.84;4734800;30;20059;-83
2022/12/14 08:26:39;;;;;;;15.15;7.57;;;;;;;-1.62;70.18;98539.00;4735375;30;20056;-82
2022/12/14 08:29:11;;;;;;;17.38;7.88;;;;;;;-0.68;70.12;98690.59;4739790;30;20499;-84
2022/12/14 08:32:31;;;;;;;14.05;8.20;;;;;;;-0.73;70.57;98688.78;4725990;30;20119;-82
2022/12/14 08:35:06;;;;;;;18.50;8.50;;;;;;;-1.91;69.92;98524.00;4745851;30;20051;-83
2022/12/14 08:37:35;;;;;;;15.43;7.75;;;;;;;-2.50;69.60;98447.97;4771950;30;20059;-82
2022/12/14 08:40:05;;;;;;;16.58;8.35;;;;;;;-2.18;70.37;98470.72;4771581;30;20491;-82
2022/12/14 08:42:32;;;;;;;17.83;9.27;;;;;;;-1.72;70.05;98558.38;4737497;30;20106;-83
2022/12/14 08:45:01;;;;;;;18.10;8.80;;;;;;;-1.14;69.78;98662.50;4737168;30;20051;-82
2022/12/14 08:47:29;;;;;;;17.30;8.55;;;;;;;-1.48;69.99;98636.25;4737411;30;20047;-84
2022/12/14 08:50:09;;;;;;;16.48;7.70;;;;;;;-0.99;70.55;98724.91;4755408;30;20219;-85
2022/12/14 08:52:48;;;;;;;18.20;8.10;;;;;;;-0.97;69.42;98731.75;4742365;30;20531;-83
2022/12/14 08:55:14;;;;;;;13.85;7.43;;;;;;;-0.98;70.36;98721.53;4754215;30;20056;-81
2022/12/14 08:57:42;;;;;;;18.75;9.38;;;;;;;-1.82;70.34;98590.47;4739688;30;20059;-81
2022/12/14 09:00:09;;;;;;;17.92;8.00;;;;;;;-1.44;69.93;98666.13;4754423;30;20138;-86
2022/12/14 09:02:38;;;;;;;15.88;8.45;;;;;;;-1.32;70.04;98673.19;4771763;30;20061;-85
2022/12/14 09:05:52;;;;;;;16.33;8.77;;;;;;;-2.00;69.33;98554.38;4759104;30;20058;-84
2022/12/14 09:09:02;;;;;;;14.88;7.45;;;;;;;-0.98;69.77;98754.72;4739304;30;20048;-85
2022/12/14 09:12:25;;;;;;;15.63;7.25;;;;;;;-2.50;69.76;98538.00;4740722;30;20064;-85
2022/12/14 09:15:42;;;;;;;16.55;7.85;;;;;;;-2.51;70.14;98553.25;4700134;30;20084;-84
2022/12/14 09:22:59;;;;;;;15.50;8.35;;;;;;;-1.64;70.00;98742.22;4736031;30;20060;-84
2022/12/14 09:33:46;;;;;;;14.85;7.63;;;;;;;-1.26;69.36;98820.50;4720396;30;20059;-84
2022/12/14 09:36:18;;;;;;;15.38;7.43;;;;;;;-2.09;69.53;98668.91;4720033;30;20117;-85
2022/12/14 09:39:03;;;;;;;18.58;8.48;;;;;;;-1.77;69.51;98736.00;4724638;30;20100;-83
2022/12/14 09:41:55;;;;;;;17.65;8.07;;;;;;;-1.10;68.89;98811.50;4755934;30;20130;-84
2022/12/14 09:48:04;;;;;;;18.88;8.15;;;;;;;-0.96;68.91;98827.13;4776675;30;20433;-84
2022/12/14 09:51:15;;;;;;;15.07;7.50;;;;;;;-0.95;68.59;98859.50;4747779;29;20162;-82
2022/12/14 09:57:32;;;;;;;14.05;7.85;;;;;;;-1.06;68.43;98851.63;4750030;30;20472;-83
2022/12/14 10:00:25;;;;;;;17.50;8.48;;;;;;;-2.60;69.36;98604.84;4734646;30;20055;-83
2022/12/14 10:03:18;;;;;;;16.13;7.60;;;;;;;-1.93;68.34;98711.81;4773189;30;20101;-81
2022/12/14 10:06:01;;;;;;;16.52;7.85;;;;;;;-2.60;68.93;98609.94;4742056;29;20146;-83
2022/12/14 10:08:35;;;;;;;16.45;8.50;;;;;;;-1.57;68.80;98787.47;4757319;29;20054;-83
2022/12/14 10:11:36;;;;;;;23.25;8.98;;;;;;;-0.87;68.97;98869.91;4772990;29;20043;-83
2022/12/14 10:14:24;;;;;;;20.75;8.82;;;;;;;-0.86;68.53;98867.38;4764806;30;20218;-81
2022/12/14 10:16:54;;;;;;;19.75;9.57;;;;;;;-1.50;68.20;98749.34;4771423;29;20052;-82
2022/12/14 10:19:45;;;;;;;17.98;8.75;;;;;;;-0.61;68.36;98884.13;4751801;30;20051;-83
2022/12/14 10:22:17;;;;;;;19.15;9.63;;;;;;;-0.73;68.19;98848.06;4767772;30;20048;-82
2022/12/14 10:25:17;;;;;;;18.20;9.02;;;;;;;-0.88;68.04;98840.91;4757019;30;20209;-82
2022/12/14 10:28:45;;;;;;;20.15;8.13;;;;;;;-1.87;68.32;98663.47;4777513;30;20041;-82
2022/12/14 10:31:40;;;;;;;18.50;7.72;;;;;;;-0.33;68.30;98909.38;4763702;29;20075;-82
2022/12/14 10:34:35;;;;;;;17.38;7.45;;;;;;;-0.42;67.57;98924.53;4752065;30;20506;-83
2022/12/14 10:37:31;;;;;;;15.15;7.70;;;;;;;-0.85;67.14;98868.25;4726163;30;20050;-84
2022/12/14 10:40:16;;;;;;;15.15;7.20;;;;;;;-1.59;67.81;98768.72;4735670;30;20110;-82
2022/12/14 10:43:36;;;;;;;19.52;8.30;;;;;;;-0.50;68.11;98942.25;4740057;30;20052;-84
2022/12/14 10:46:36;;;;;;;18.45;8.13;;;;;;;-0.48;67.32;98940.59;4722554;30;20074;-83
2022/12/14 10:49:47;;;;;;;13.60;6.55;;;;;;;-0.52;66.90;98943.91;4708947;30;20065;-83
2022/12/14 10:53:30;;;;;;;16.95;7.22;;;;;;;-0.52;67.26;98962.69;4748944;30;20059;-81
2022/12/14 10:56:20;;;;;;;14.82;7.50;;;;;;;-1.65;67.70;98760.91;4725669;30;20068;-82
2022/12/14 10:59:11;;;;;;;11.40;6.70;;;;;;;-0.33;67.30;98961.38;4716389;30;20052;-82
2022/12/14 11:01:48;;;;;;;16.08;8.45;;;;;;;-1.24;67.58;98818.84;4728642;30;20055;-82
2022/12/14 11:08:41;;;;;;;15.52;7.88;;;;;;;-1.74;67.59;98760.72;4725326;30;20063;-82
2022/12/14 11:11:30;;;;;;;19.88;8.05;;;;;;;-0.29;67.13;98992.13;4737949;30;20048;-83
2022/12/14 11:15:05;;;;;;;16.35;7.68;;;;;;;-0.15;67.98;99016.31;4722858;30;20051;-83
2022/12/14 11:18:37;;;;;;;12.05;6.22;;;;;;;-0.14;67.75;99017.19;4722868;30;20048;-82
2022/12/14 11:21:40;;;;;;;10.82;6.25;;;;;;;-1.53;67.27;98807.13;4747683;30;20052;-83
2022/12/14 11:24:34;;;;;;;11.27;6.10;;;;;;;-1.16;68.02;98876.06;4741073;30;20052;-82
2022/12/14 11:28:20;;;;;;;12.85;6.13;;;;;;;-0.19;67.34;99052.88;4739544;30;20052;-82
2022/12/14 11:31:28;;;;;;;9.15;5.13;;;;;;;-0.82;67.75;98942.41;4699820;30;20112;-86
2022/12/14 11:33:57;;;;;;;11.25;5.72;;;;;;;-1.27;67.07;98880.06;4655625;30;20168;-84
2022/12/14 11:36:28;;;;;;;10.63;5.40;;;;;;;-0.61;67.32;99014.47;4698030;30;20069;-83
2022/12/14 11:39:06;;;;;;;15.20;5.97;;;;;;;-0.25;67.47;99086.88;4702612;30;20121;-82
2022/12/14 11:41:44;;;;;;;10.30;5.68;;;;;;;-1.10;67.35;98944.28;4726298;30;20305;-82
2022/12/14 11:44:15;;;;;;;11.50;5.40;;;;;;;-0.20;67.38;99100.59;4719603;30;20067;-85
2022/12/14 11:46:55;;;;;;;9.40;4.63;;;;;;;-0.28;66.82;99102.13;4729302;30;20063;-86
2022/12/14 11:50:12;;;;;;;8.32;4.45;;;;;;;-0.97;67.87;99017.81;4738698;30;20059;-83
2022/12/14 11:53:04;;;;;;;8.07;4.20;;;;;;;-0.37;66.89;99151.38;4755835;30;20028;-84
2022/12/14 11:55:35;;;;;;;6.68;4.03;;;;;;;-1.53;67.57;98967.91;4775270;30;20039;-83
2022/12/14 11:58:24;;;;;;;5.93;3.28;;;;;;;-0.93;68.44;99045.19;4769496;30;20050;-82
2022/12/14 12:01:05;;;;;;;6.82;3.63;;;;;;;-1.76;67.30;98918.81;4754943;30;20060;-83
2022/12/14 12:03:44;;;;;;;5.47;2.80;;;;;;;-0.42;67.47;99154.59;4754543;30;20431;-86
2022/12/14 12:07:15;;;;;;;3.58;2.40;;;;;;;-0.67;67.38;99165.09;4742613;30;20048;-82
2022/12/14 12:10:17;;;;;;;3.23;2.10;;;;;;;-0.75;67.75;99184.44;4695595;30;20238;-85
2022/12/14 12:16:41;;;;;;;2.40;1.60;;;;;;;-1.89;67.64;99047.72;4706655;30;20071;-82
2022/12/14 12:19:24;;;;;;;2.72;1.60;;;;;;;-0.98;68.20;99202.56;4718259;30;20571;-83
2022/12/14 12:22:13;;;;;;;3.65;1.88;;;;;;;-1.03;67.24;99242.47;4747765;30;20064;-85
2022/12/14 12:25:04;;;;;;;2.40;1.33;;;;;;;-2.13;67.66;99081.88;4739847;30;20044;-80
2022/12/14 12:27:32;;;;;;;2.97;1.88;;;;;;;-2.21;68.19;99062.91;4738878;30;20473;-82
2022/12/14 12:30:37;;;;;;;2.67;1.60;;;;;;;-1.44;68.02;99214.88;4755043;30;20040;-84
2022/12/14 12:34:02;;;;;;;2.80;1.98;;;;;;;-1.25;67.90;99272.47;4722420;30;20057;-82
2022/12/14 12:36:44;;;;;;;3.55;2.00;;;;;;;-1.37;68.46;99270.41;4726564;30;20068;-80
2022/12/14 12:44:16;;;;;;;2.67;2.00;;;;;;;-1.37;68.18;99292.50;4756957;30;20067;-83
2022/12/14 12:47:20;;;;;;;;;;;;;;;;;;;;;
2022/12/14 12:50:29;;;;;;;4.35;2.42;;;;;;;-3.04;67.93;99101.84;4726385;30;20516;-83
2022/12/14 12:53:27;;;;;;;;;;;;;;;;;;;;;
2022/12/14 12:56:57;;;;;;;;;;;;;;;;;;;;;
2022/12/14 13:03:59;;;;;;;6.32;2.00;;;;;;;-3.41;67.83;99165.00;4684668;30;20060;-83
2022/12/14 13:06:47;;;;;;;4.82;2.58;;;;;;;-2.62;68.01;99291.75;4683617;30;20060;-85
2022/12/14 13:09:47;;;;;;;5.93;2.33;;;;;;;-2.69;68.31;99312.72;4684685;30;20549;-85
2022/12/14 13:13:19;;;;;;;5.32;2.55;;;;;;;-3.73;68.27;99146.88;4672782;30;20054;-83
2022/12/14 13:16:21;;;;;;;5.93;2.72;;;;;;;-2.93;68.00;99290.63;4734795;30;20531;-86
2022/12/14 13:19:15;;;;;;;5.63;2.17;;;;;;;-3.46;68.17;99237.78;4706583;30;20060;-87
2022/12/14 13:21:53;;;;;;;4.53;2.17;;;;;;;-4.21;67.74;99124.72;4753152;30;20064;-85
2022/12/14 13:29:24;;;;;;;;;;;;;;;;;;;;;
2022/12/14 13:31:56;;;;;;;5.57;2.67;;;;;;;-2.81;68.21;99428.63;4754550;30;20095;-83
2022/12/14 13:34:37;;;;;;;7.40;2.47;;;;;;;-3.19;68.29;99400.84;4738310;30;20048;-82
2022/12/14 13:45:18;;;;;;;5.60;2.90;;;;;;;-3.67;68.66;99345.50;4679177;30;20152;-83
2022/12/14 13:49:08;;;;;;;;;;;;;;;;;;;;;
2022/12/14 13:52:21;;;;;;;6.85;3.22;;;;;;;-3.88;68.88;99331.91;4731235;30;20049;-84
2022/12/14 14:06:16;;;;;;;7.82;2.33;;;;;;;-2.72;68.57;99505.41;4724115;30;20068;-82
2022/12/14 14:09:02;;;;;;;6.32;2.20;;;;;;;-2.78;69.02;99502.63;4730368;30;20136;-83
2022/12/14 14:15:49;;;;;;;7.88;3.10;;;;;;;-2.79;68.58;99497.47;4725239;30;20045;-84
2022/12/14 14:18:39;;;;;;;5.78;2.83;;;;;;;-3.16;68.60;99433.19;4767969;30;20032;-83
2022/12/14 14:22:19;;;;;;;5.90;2.90;;;;;;;-2.51;68.67;99542.72;4746386;30;20151;-86
2022/12/14 14:25:04;;;;;;;7.90;3.33;;;;;;;-3.95;68.45;99298.59;4740427;30;20068;-85
2022/12/14 14:28:02;;;;;;;6.53;3.35;;;;;;;-3.94;68.21;99324.88;4741205;30;20056;-83
2022/12/14 14:31:00;;;;;;;6.75;3.53;;;;;;;-3.43;68.69;99395.66;4756657;30;20040;-84
2022/12/14 14:33:38;;;;;;;7.95;3.42;;;;;;;-2.43;68.78;99564.31;4725420;30;20070;-84